Arcadia, South Carolina
Current Conditions -  °F | °C
As of 7:15 AM on Monday 22 Dec 2014 (Local Time) from KSPA Reporting Station
Haze Haze  
Wind Chill: 36°   Ceiling: 700
Heat Index: 43°   Visibility: 3mi
Dew Point: 43°   Wind: 13mph
Humidity: 100%   Direction: 50°NE
Pressure: 30.1"   Gusts: 18mph
Location:  34.96°N, 81.99°W
Report Text: KSPA 221215Z AUTO 05011G16KT 3SM BR OVC007 06/06 A3010 RMK AO2
Loading
Personal Weather Stations






























Interactive Weather Map New forecast layout! Learn more

10-Day Weather Forecast

Advertisements
Track Severe Weather on mobile